createdAt,value
2023-04-15T00:03:58.143Z,46.32
2023-04-15T00:09:21.138Z,45.79
2023-04-15T00:14:43.358Z,45.55
2023-04-15T00:20:06.909Z,45.93
2023-04-15T00:25:29.623Z,45.87
2023-04-15T00:30:51.773Z,45.89
2023-04-15T00:36:14.186Z,46.26
2023-04-15T00:41:40.476Z,46.63
2023-04-15T00:47:06.616Z,47.08
2023-04-15T00:52:29.069Z,46.96
2023-04-15T00:57:51.904Z,46.35
2023-04-15T01:03:17.310Z,47.25
2023-04-15T01:08:40.016Z,46.85
2023-04-15T01:14:04.472Z,46.75
2023-04-15T01:19:28.106Z,46.93
2023-04-15T01:25:17.088Z,46.68
2023-04-15T01:30:39.457Z,46.63
2023-04-15T01:36:02.227Z,46.79
2023-04-15T01:41:28.793Z,46.89
2023-04-15T01:46:55.063Z,47.15
2023-04-15T01:52:18.904Z,47.43
2023-04-15T01:57:42.250Z,47.64
2023-04-15T02:03:05.837Z,47.26
2023-04-15T02:08:29.137Z,48.08
2023-04-15T02:13:52.895Z,47.78
2023-04-15T02:19:16.174Z,47.95
2023-04-15T02:24:39.357Z,47.64
2023-04-15T02:30:02.646Z,48.21
2023-04-15T02:35:26.486Z,47.96
2023-04-15T02:40:52.677Z,48.28
2023-04-15T02:46:18.186Z,47.70
2023-04-15T02:51:42.654Z,48.29
2023-04-15T02:57:07.323Z,47.65
2023-04-15T03:02:39.327Z,48.24
2023-04-15T03:08:03.663Z,47.74
2023-04-15T03:13:26.931Z,47.48
2023-04-15T03:18:52.263Z,47.74
2023-04-15T03:24:17.532Z,47.10
2023-04-15T03:29:41.734Z,46.76
2023-04-15T03:35:05.412Z,46.78
2023-04-15T03:40:28.772Z,46.48
2023-04-15T03:45:52.162Z,46.79
2023-04-15T03:51:15.324Z,46.68
2023-04-15T03:56:38.817Z,46.23
2023-04-15T04:02:02.541Z,47.09
2023-04-15T04:07:26.032Z,47.19
2023-04-15T04:12:49.422Z,47.16
2023-04-15T04:18:13.257Z,47.46
2023-04-15T04:23:36.570Z,47.07
2023-04-15T04:29:00.217Z,46.55
2023-04-15T04:34:23.719Z,44.91
2023-04-15T04:39:47.213Z,44.16
2023-04-15T04:45:10.829Z,42.42
2023-04-15T04:50:34.098Z,42.93
2023-04-15T04:55:58.807Z,43.38
2023-04-15T05:01:22.506Z,42.13
2023-04-15T05:06:46.540Z,40.63
2023-04-15T05:18:21.923Z,40.67
2023-04-15T05:23:45.193Z,37.97
2023-04-15T05:29:09.162Z,38.27
2023-04-15T05:34:36.111Z,38.77
2023-04-15T05:40:01.924Z,37.85
2023-04-15T05:45:25.854Z,37.81
2023-04-15T05:50:53.262Z,37.08
2023-04-15T05:56:22.959Z,33.99
2023-04-15T06:01:46.768Z,33.95
2023-04-15T06:07:10.374Z,34.59
2023-04-15T06:12:33.953Z,35.76
2023-04-15T06:17:57.145Z,35.27
2023-04-15T06:23:20.411Z,35.78
2023-04-15T06:28:43.925Z,34.00
2023-04-15T06:34:07.358Z,34.79
2023-04-15T06:39:30.505Z,34.81
2023-04-15T06:44:59.820Z,34.09
2023-04-15T06:50:31.168Z,34.70
2023-04-15T06:55:56.852Z,34.48
2023-04-15T07:01:20.958Z,32.28
2023-04-15T07:06:45.932Z,32.06
2023-04-15T07:12:13.083Z,34.59
2023-04-15T07:17:36.812Z,33.73
2023-04-15T07:22:59.979Z,33.20
2023-04-15T07:28:23.430Z,33.48
2023-04-15T07:33:47.348Z,29.83
2023-04-15T07:39:11.209Z,33.31
2023-04-15T07:44:34.600Z,33.83
2023-04-15T07:49:58.097Z,34.04
2023-04-15T07:55:23.532Z,33.62
2023-04-15T08:00:52.020Z,32.60
2023-04-15T08:06:15.664Z,33.96
2023-04-15T08:11:39.004Z,30.54
2023-04-15T08:17:02.347Z,29.85
2023-04-15T08:22:26.093Z,31.19
2023-04-15T08:27:49.739Z,32.60
2023-04-15T08:33:12.820Z,33.46
2023-04-15T08:38:36.832Z,32.72
2023-04-15T08:44:04.630Z,32.90
2023-04-15T08:49:29.064Z,31.57
2023-04-15T08:54:53.671Z,30.02
2023-04-15T09:00:20.540Z,34.10
2023-04-15T09:05:43.928Z,33.19
2023-04-15T09:11:07.313Z,32.81
2023-04-15T09:16:31.372Z,33.92
2023-04-15T09:21:58.977Z,31.87
2023-04-15T09:27:23.097Z,32.63
2023-04-15T09:32:55.115Z,32.00
2023-04-15T09:38:18.080Z,33.68
2023-04-15T09:43:44.121Z,33.56
2023-04-15T09:49:11.602Z,33.41
2023-04-15T09:54:40.744Z,33.43
2023-04-15T10:00:13.013Z,33.74
2023-04-15T10:05:58.343Z,29.40
2023-04-15T10:11:24.828Z,29.46
2023-04-15T10:17:05.983Z,30.74
2023-04-15T10:22:42.103Z,32.03
2023-04-15T10:28:37.349Z,32.49
2023-04-15T10:34:20.878Z,33.47
2023-04-15T10:39:48.603Z,33.28
2023-04-15T10:45:19.274Z,33.30
2023-04-15T10:50:56.440Z,32.60
2023-04-15T10:56:19.245Z,33.15
2023-04-15T11:01:52.735Z,32.27
2023-04-15T11:07:34.965Z,31.87
2023-04-15T11:12:59.606Z,33.54
2023-04-15T11:18:24.347Z,30.38
2023-04-15T11:23:47.951Z,32.31
2023-04-15T11:29:18.538Z,32.98
2023-04-15T11:34:42.815Z,32.45
2023-04-15T11:40:10.218Z,32.94
2023-04-15T11:45:33.531Z,32.33
2023-04-15T11:51:11.441Z,31.98
2023-04-15T11:56:34.142Z,30.56
2023-04-15T12:01:56.695Z,31.07
2023-04-15T12:07:18.962Z,31.05
2023-04-15T12:12:42.228Z,32.40
2023-04-15T12:18:05.137Z,31.51
2023-04-15T12:23:28.440Z,32.16
2023-04-15T12:28:56.260Z,31.01
2023-04-15T12:34:19.522Z,30.01
2023-04-15T12:39:44.583Z,29.56
2023-04-15T12:45:07.450Z,28.84
2023-04-15T12:50:29.242Z,27.77
2023-04-15T12:55:51.090Z,28.24
2023-04-15T13:01:13.084Z,27.87
2023-04-15T13:06:34.962Z,29.83
2023-04-15T13:11:58.067Z,29.75
2023-04-15T13:17:22.489Z,28.25
2023-04-15T13:22:44.251Z,30.51
2023-04-15T13:28:06.170Z,29.50
2023-04-15T13:33:28.965Z,27.82
2023-04-15T13:38:51.770Z,28.21
2023-04-15T13:44:14.607Z,28.97
2023-04-15T13:49:37.344Z,29.53
2023-04-15T13:55:18.547Z,30.45
2023-04-15T14:00:42.843Z,30.43
2023-04-15T14:06:06.269Z,30.58
2023-04-15T14:11:28.844Z,30.40
2023-04-15T14:16:51.270Z,29.71
2023-04-15T14:22:13.640Z,29.69
2023-04-15T14:27:36.099Z,30.23
2023-04-15T14:32:58.298Z,29.74
2023-04-15T14:38:23.127Z,30.21
2023-04-15T14:43:45.198Z,29.72
2023-04-15T14:49:07.321Z,29.44
2023-04-15T14:54:29.705Z,30.59
2023-04-15T14:59:56.606Z,30.75
2023-04-15T15:05:18.646Z,30.93
2023-04-15T15:10:49.070Z,31.32
2023-04-15T15:16:14.317Z,32.00
2023-04-15T15:21:39.814Z,32.14
2023-04-15T15:27:02.571Z,32.74
2023-04-15T15:32:24.871Z,33.68
2023-04-15T15:37:47.070Z,33.97
2023-04-15T15:43:09.268Z,34.45
2023-04-15T15:48:31.816Z,34.73
2023-04-15T15:53:53.959Z,35.57
2023-04-15T15:59:16.696Z,35.48
2023-04-15T16:04:39.807Z,35.53
2023-04-15T16:10:02.389Z,35.75
2023-04-15T16:15:27.064Z,35.83
2023-04-15T16:20:53.952Z,36.22
2023-04-15T16:26:18.316Z,36.49
2023-04-15T16:31:43.256Z,36.89
2023-04-15T16:37:13.750Z,37.04
2023-04-15T16:42:37.377Z,36.92
2023-04-15T16:48:00.153Z,37.56
2023-04-15T16:53:22.275Z,38.22
2023-04-15T16:58:44.495Z,38.60
2023-04-15T17:04:08.173Z,39.13
2023-04-15T17:09:30.280Z,39.33
2023-04-15T17:14:52.180Z,39.74
2023-04-15T17:20:14.869Z,40.19
2023-04-15T17:25:38.430Z,40.53
2023-04-15T17:31:07.832Z,40.83
2023-04-15T17:36:51.866Z,41.51
2023-04-15T17:42:33.845Z,41.22
2023-04-15T17:48:15.725Z,42.46
2023-04-15T17:53:57.802Z,42.65
2023-04-15T17:59:44.287Z,43.06
2023-04-15T18:05:26.850Z,42.94
2023-04-15T18:11:09.662Z,43.30
2023-04-15T18:16:53.359Z,43.83
2023-04-15T18:22:35.278Z,44.01
2023-04-15T18:27:57.513Z,45.09
2023-04-15T18:33:19.609Z,44.97
2023-04-15T18:38:41.792Z,45.32
2023-04-15T18:44:04.113Z,45.65
2023-04-15T18:49:27.913Z,45.93
2023-04-15T18:54:50.134Z,46.02
2023-04-15T19:00:13.406Z,47.03
2023-04-15T19:05:37.038Z,46.80
2023-04-15T19:10:59.192Z,46.95
2023-04-15T19:16:21.778Z,47.15
2023-04-15T19:21:44.053Z,47.26
2023-04-15T19:27:06.432Z,47.51
2023-04-15T19:32:28.714Z,47.49
2023-04-15T19:37:50.986Z,48.31
2023-04-15T19:43:13.035Z,47.68
2023-04-15T19:48:35.158Z,48.13
2023-04-15T19:53:57.457Z,48.18
2023-04-15T19:59:19.822Z,48.89
2023-04-15T20:04:42.286Z,48.87
2023-04-15T20:10:12.214Z,49.33
2023-04-15T20:15:34.706Z,49.56
2023-04-15T20:20:57.063Z,49.80
2023-04-15T20:26:20.190Z,49.92
2023-04-15T20:31:42.518Z,50.28
2023-04-15T20:37:05.033Z,51.01
2023-04-15T20:42:26.940Z,50.83
2023-04-15T20:47:49.559Z,50.94
2023-04-15T20:53:11.744Z,51.53
2023-04-15T20:58:33.784Z,52.21
2023-04-15T21:03:56.076Z,52.05
2023-04-15T21:09:18.076Z,52.63
2023-04-15T21:14:41.300Z,53.00
2023-04-15T21:20:03.226Z,53.13
2023-04-15T21:25:25.602Z,53.20
2023-04-15T21:30:48.005Z,52.92
2023-04-15T21:36:10.361Z,53.61
2023-04-15T21:41:33.262Z,54.03
2023-04-15T21:46:55.712Z,54.21
2023-04-15T21:52:18.294Z,53.96
2023-04-15T21:57:40.261Z,54.59
2023-04-15T22:03:02.756Z,54.96
2023-04-15T22:08:25.335Z,54.93
2023-04-15T22:13:47.625Z,54.72
2023-04-15T22:19:10.869Z,55.40
2023-04-15T22:24:40.799Z,55.29
2023-04-15T22:30:03.792Z,55.40
2023-04-15T22:35:27.709Z,55.97
2023-04-15T22:40:49.858Z,55.48
2023-04-15T22:46:12.523Z,57.26
2023-04-15T22:51:34.610Z,56.62
2023-04-15T22:56:57.005Z,57.14
2023-04-15T23:02:19.496Z,56.99
2023-04-15T23:07:41.660Z,57.24
2023-04-15T23:13:03.673Z,57.40
2023-04-15T23:18:25.684Z,57.32
2023-04-15T23:23:47.842Z,57.62
2023-04-15T23:29:10.354Z,57.42
2023-04-15T23:34:32.671Z,57.84
2023-04-15T23:39:56.243Z,58.44
2023-04-15T23:45:18.871Z,58.34
2023-04-15T23:50:41.067Z,58.40
2023-04-15T23:56:03.874Z,58.43
